createdAt,value
2022-12-07T00:03:18.304Z,69.64
2022-12-07T00:07:27.690Z,69.85
2022-12-07T00:11:32.589Z,70.20
2022-12-07T00:15:37.361Z,70.09
2022-12-07T00:19:40.998Z,70.08
2022-12-07T00:23:47.070Z,69.62
2022-12-07T00:27:50.708Z,70.12
2022-12-07T00:31:54.286Z,70.29
2022-12-07T00:35:58.736Z,70.44
2022-12-07T00:40:03.771Z,70.59
2022-12-07T00:44:07.484Z,69.92
2022-12-07T00:48:11.319Z,69.83
2022-12-07T00:52:14.920Z,70.25
2022-12-07T00:56:21.384Z,70.66
2022-12-07T01:00:24.910Z,70.12
2022-12-07T01:04:28.633Z,70.42
2022-12-07T01:08:34.025Z,70.29
2022-12-07T01:12:38.851Z,71.08
2022-12-07T01:16:43.083Z,70.92
2022-12-07T01:20:46.965Z,70.88
2022-12-07T01:24:50.789Z,70.50
2022-12-07T01:28:56.645Z,70.37
2022-12-07T01:32:59.732Z,71.24
2022-12-07T01:37:03.273Z,71.17
2022-12-07T01:41:06.917Z,71.36
2022-12-07T01:45:49.778Z,71.49
2022-12-07T01:49:53.432Z,71.00
2022-12-07T01:53:56.940Z,70.90
2022-12-07T01:58:01.047Z,71.08
2022-12-07T02:02:12.744Z,71.06
2022-12-07T02:06:21.406Z,71.48
2022-12-07T02:10:27.070Z,70.91
2022-12-07T02:14:30.673Z,70.78
2022-12-07T02:18:47.587Z,71.42
2022-12-07T02:23:24.029Z,71.73
2022-12-07T02:27:45.475Z,71.29
2022-12-07T02:31:57.991Z,71.34
2022-12-07T02:36:07.424Z,71.74
2022-12-07T02:40:17.820Z,71.44
2022-12-07T02:44:24.433Z,71.79
2022-12-07T02:48:30.753Z,71.65
2022-12-07T02:52:34.319Z,72.11
2022-12-07T02:56:48.368Z,72.15
2022-12-07T03:01:11.885Z,71.59
2022-12-07T03:05:31.276Z,71.52
2022-12-07T03:09:40.157Z,72.12
2022-12-07T03:13:51.153Z,72.27
2022-12-07T03:17:58.174Z,72.02
2022-12-07T03:22:08.274Z,72.57
2022-12-07T03:26:14.321Z,72.58
2022-12-07T03:30:20.805Z,72.57
2022-12-07T03:34:31.069Z,72.47
2022-12-07T03:38:40.923Z,72.99
2022-12-07T03:42:45.274Z,73.23
2022-12-07T03:46:59.363Z,72.96
2022-12-07T03:51:10.089Z,72.82
2022-12-07T03:55:25.050Z,73.13
2022-12-07T03:59:29.627Z,73.14
2022-12-07T04:03:32.905Z,72.70
2022-12-07T04:07:36.092Z,72.49
2022-12-07T04:11:41.132Z,72.97
2022-12-07T04:15:44.789Z,71.99
2022-12-07T04:19:47.919Z,72.13
2022-12-07T04:23:51.469Z,72.11
2022-12-07T04:27:56.651Z,72.20
2022-12-07T04:31:59.871Z,72.26
2022-12-07T04:36:03.335Z,72.16
2022-12-07T04:40:08.940Z,72.71
2022-12-07T04:44:16.397Z,72.44
2022-12-07T04:48:20.030Z,72.92
2022-12-07T04:52:23.672Z,72.81
2022-12-07T04:56:27.846Z,72.31
2022-12-07T05:00:32.899Z,72.41
2022-12-07T05:04:36.067Z,72.15
2022-12-07T05:08:39.857Z,72.51
2022-12-07T05:12:43.025Z,72.27
2022-12-07T05:16:50.565Z,72.45
2022-12-07T05:20:54.832Z,71.89
2022-12-07T05:24:58.351Z,72.47
2022-12-07T05:34:25.972Z,72.68
2022-12-07T05:38:29.205Z,72.07
2022-12-07T05:42:32.667Z,72.74
2022-12-07T05:46:36.733Z,72.74
2022-12-07T05:50:41.736Z,72.75
2022-12-07T05:54:45.373Z,72.49
2022-12-07T05:59:05.946Z,72.69
2022-12-07T06:03:10.217Z,72.40
2022-12-07T06:07:18.320Z,72.97
2022-12-07T06:11:39.314Z,72.36
2022-12-07T06:15:42.824Z,72.31
2022-12-07T06:19:45.929Z,72.25
2022-12-07T06:23:50.815Z,72.38
2022-12-07T06:27:54.287Z,72.50
2022-12-07T06:31:57.404Z,72.57
2022-12-07T06:36:00.965Z,72.68
2022-12-07T06:40:06.940Z,71.49
2022-12-07T06:44:10.691Z,71.05
2022-12-07T06:48:13.865Z,71.00
2022-12-07T06:52:17.496Z,70.48
2022-12-07T06:56:22.719Z,70.45
2022-12-07T07:00:26.621Z,70.44
2022-12-07T07:04:29.744Z,70.10
2022-12-07T07:08:33.174Z,68.75
2022-12-07T07:12:38.320Z,68.41
2022-12-07T07:16:41.838Z,67.98
2022-12-07T07:20:45.031Z,68.42
2022-12-07T07:29:13.610Z,67.82
2022-12-07T07:33:16.915Z,67.24
2022-12-07T07:37:22.225Z,69.15
2022-12-07T07:41:25.975Z,66.21
2022-12-07T07:45:31.225Z,66.33
2022-12-07T07:49:34.317Z,66.49
2022-12-07T07:53:37.995Z,66.57
2022-12-07T07:57:42.404Z,66.24
2022-12-07T08:01:47.391Z,66.02
2022-12-07T08:05:51.261Z,66.25
2022-12-07T08:09:54.405Z,66.87
2022-12-07T08:13:58.348Z,66.65
2022-12-07T08:18:07.433Z,67.33
2022-12-07T08:22:11.332Z,67.31
2022-12-07T08:26:17.679Z,67.33
2022-12-07T08:30:21.813Z,66.30
2022-12-07T08:34:26.805Z,67.21
2022-12-07T08:38:32.184Z,65.60
2022-12-07T08:42:41.751Z,66.45
2022-12-07T08:46:49.553Z,66.03
2022-12-07T08:50:54.606Z,65.74
2022-12-07T08:54:58.826Z,64.45
2022-12-07T08:59:02.537Z,65.07
2022-12-07T09:03:06.195Z,64.63
2022-12-07T09:07:11.464Z,64.25
2022-12-07T09:11:14.938Z,64.04
2022-12-07T09:15:21.608Z,63.29
2022-12-07T09:19:24.747Z,64.13
2022-12-07T09:23:30.104Z,65.09
2022-12-07T09:27:33.822Z,65.33
2022-12-07T09:31:40.151Z,65.21
2022-12-07T09:35:47.365Z,65.83
2022-12-07T09:39:52.474Z,65.47
2022-12-07T09:44:01.043Z,65.95
2022-12-07T09:48:06.195Z,64.72
2022-12-07T09:52:22.613Z,63.93
2022-12-07T09:56:28.010Z,64.46
2022-12-07T10:00:32.415Z,63.99
2022-12-07T10:04:35.997Z,64.55
2022-12-07T10:08:39.563Z,64.30
2022-12-07T10:12:58.178Z,64.88
2022-12-07T10:17:01.802Z,63.31
2022-12-07T10:21:15.131Z,65.07
2022-12-07T10:25:22.523Z,64.07
2022-12-07T10:29:33.269Z,64.57
2022-12-07T10:33:38.559Z,64.31
2022-12-07T10:37:43.551Z,64.43
2022-12-07T10:41:58.852Z,63.74
2022-12-07T10:46:39.943Z,64.20
2022-12-07T10:51:08.641Z,63.79
2022-12-07T10:55:23.146Z,63.48
2022-12-07T10:59:47.346Z,63.74
2022-12-07T11:04:11.231Z,63.40
2022-12-07T11:08:25.238Z,62.41
2022-12-07T11:12:44.394Z,62.31
2022-12-07T11:16:58.099Z,62.80
2022-12-07T11:21:14.497Z,62.29
2022-12-07T11:25:29.103Z,62.17
2022-12-07T11:29:49.450Z,63.25
2022-12-07T11:34:02.967Z,61.98
2022-12-07T11:38:14.045Z,62.03
2022-12-07T11:42:21.981Z,62.65
2022-12-07T11:46:29.007Z,62.21
2022-12-07T11:50:38.372Z,64.18
2022-12-07T11:54:46.836Z,62.39
2022-12-07T11:58:54.854Z,61.19
2022-12-07T12:03:04.500Z,60.18
2022-12-07T12:11:51.714Z,60.76
2022-12-07T12:16:09.277Z,62.58
2022-12-07T12:20:23.579Z,62.10
2022-12-07T12:24:29.698Z,61.70
2022-12-07T12:28:46.689Z,62.05
2022-12-07T12:32:52.581Z,59.85
2022-12-07T12:36:55.754Z,59.78
2022-12-07T12:41:01.192Z,61.63
2022-12-07T12:45:25.653Z,61.20
2022-12-07T12:50:01.803Z,63.10
2022-12-07T12:54:07.012Z,60.75
2022-12-07T12:58:33.119Z,61.41
2022-12-07T13:02:40.588Z,61.01
2022-12-07T13:06:45.235Z,61.68
2022-12-07T13:10:49.309Z,61.26
2022-12-07T13:14:58.398Z,62.50
2022-12-07T13:19:03.492Z,61.68
2022-12-07T13:23:09.039Z,61.65
2022-12-07T13:27:15.133Z,62.44
2022-12-07T13:31:37.582Z,62.84
2022-12-07T13:35:42.857Z,61.50
2022-12-07T13:39:50.229Z,62.55
2022-12-07T13:43:58.050Z,63.75
2022-12-07T13:48:02.348Z,63.30
2022-12-07T13:52:22.729Z,64.19
2022-12-07T13:56:32.988Z,63.65
2022-12-07T14:00:36.133Z,63.76
2022-12-07T14:04:40.588Z,64.54
2022-12-07T14:08:46.569Z,61.63
2022-12-07T14:12:52.817Z,62.51
2022-12-07T14:17:05.664Z,61.82
2022-12-07T14:21:18.176Z,62.25
2022-12-07T14:25:26.987Z,61.83
2022-12-07T14:29:35.935Z,62.07
2022-12-07T14:33:39.742Z,62.28
2022-12-07T14:37:46.535Z,62.36
2022-12-07T14:41:54.752Z,63.47
2022-12-07T14:45:58.458Z,63.32
2022-12-07T14:50:04.940Z,64.18
2022-12-07T14:54:18.679Z,64.18
2022-12-07T14:58:23.749Z,64.54
2022-12-07T15:02:27.347Z,63.53
2022-12-07T15:06:30.499Z,64.27
2022-12-07T15:10:40.206Z,64.37
2022-12-07T15:14:47.036Z,64.31
2022-12-07T15:19:19.316Z,65.27
2022-12-07T15:23:14.839Z,65.31
2022-12-07T15:27:18.490Z,65.40
2022-12-07T15:31:53.992Z,64.70
2022-12-07T15:35:48.528Z,65.99
2022-12-07T15:39:52.010Z,66.21
2022-12-07T15:44:12.818Z,67.15
2022-12-07T15:48:27.789Z,66.59
2022-12-07T15:52:31.635Z,66.26
2022-12-07T15:56:35.087Z,66.52
2022-12-07T16:00:38.676Z,66.14
2022-12-07T16:04:43.136Z,65.75
2022-12-07T16:08:46.621Z,66.35
2022-12-07T16:12:50.084Z,66.11
2022-12-07T16:16:53.744Z,66.23
2022-12-07T16:20:58.328Z,65.48
2022-12-07T16:25:02.280Z,65.78
2022-12-07T16:29:05.963Z,65.70
2022-12-07T16:33:09.675Z,65.92
2022-12-07T16:37:14.259Z,65.37
2022-12-07T16:41:18.144Z,65.82
2022-12-07T16:45:21.642Z,65.88
2022-12-07T16:49:25.282Z,65.59
2022-12-07T16:53:30.255Z,64.61
2022-12-07T16:57:34.142Z,65.18
2022-12-07T17:01:37.826Z,65.60
2022-12-07T17:05:42.618Z,65.20
2022-12-07T17:09:47.299Z,65.36
2022-12-07T17:14:08.555Z,64.79
2022-12-07T17:18:12.133Z,64.81
2022-12-07T17:22:15.552Z,65.24
2022-12-07T17:26:22.407Z,64.86
2022-12-07T17:30:25.586Z,64.94
2022-12-07T17:34:29.189Z,65.23
2022-12-07T17:38:32.716Z,64.43
2022-12-07T17:42:38.674Z,64.95
2022-12-07T17:46:42.950Z,64.50
2022-12-07T17:51:03.151Z,63.13
2022-12-07T17:55:07.632Z,63.86
2022-12-07T17:59:14.751Z,64.57
2022-12-07T18:03:17.847Z,63.14
2022-12-07T18:07:22.559Z,63.54
2022-12-07T18:11:26.585Z,63.68
2022-12-07T18:15:33.487Z,63.53
2022-12-07T18:19:37.742Z,63.59
2022-12-07T18:23:41.465Z,63.45
2022-12-07T18:27:45.442Z,63.59
2022-12-07T18:31:50.319Z,63.42
2022-12-07T18:35:54.281Z,63.28
2022-12-07T18:39:59.088Z,63.39
2022-12-07T18:44:03.013Z,63.40
2022-12-07T18:48:08.722Z,63.60
2022-12-07T18:52:12.015Z,63.64
2022-12-07T18:56:17.826Z,63.37
2022-12-07T19:00:24.096Z,64.01
2022-12-07T19:04:29.099Z,64.05
2022-12-07T19:12:38.059Z,63.72
2022-12-07T19:16:44.904Z,63.63
2022-12-07T19:20:49.899Z,64.08
2022-12-07T19:24:57.862Z,63.53
2022-12-07T19:29:01.772Z,64.58
2022-12-07T19:33:06.005Z,64.47
2022-12-07T19:37:12.940Z,64.98
2022-12-07T19:41:30.536Z,65.05
2022-12-07T19:45:36.052Z,64.93
2022-12-07T19:49:39.715Z,64.80
2022-12-07T19:53:44.666Z,64.54
2022-12-07T19:57:50.145Z,64.35
2022-12-07T20:01:54.375Z,64.54
2022-12-07T20:05:58.685Z,64.33
2022-12-07T20:10:05.791Z,63.80
2022-12-07T20:14:10.211Z,63.93
2022-12-07T20:18:15.179Z,64.39
2022-12-07T20:22:19.744Z,64.12
2022-12-07T20:26:27.377Z,64.23
2022-12-07T20:30:31.224Z,64.80
2022-12-07T20:34:37.033Z,64.94
2022-12-07T20:38:41.514Z,65.04
2022-12-07T20:42:48.862Z,65.32
2022-12-07T20:46:54.111Z,65.71
2022-12-07T20:51:15.587Z,66.08
2022-12-07T20:55:19.050Z,65.60
2022-12-07T20:59:41.918Z,66.69
2022-12-07T21:03:45.833Z,66.46
2022-12-07T21:07:56.582Z,66.70
2022-12-07T21:12:01.502Z,66.96
2022-12-07T21:16:11.882Z,66.59
2022-12-07T21:20:15.891Z,66.61
2022-12-07T21:24:19.476Z,66.87
2022-12-07T21:28:23.706Z,67.09
2022-12-07T21:32:33.484Z,67.08
2022-12-07T21:36:52.676Z,67.27
2022-12-07T21:40:56.223Z,67.48
2022-12-07T21:45:00.249Z,66.82
2022-12-07T21:49:07.494Z,66.99
2022-12-07T21:53:10.767Z,66.49
2022-12-07T21:57:14.303Z,67.19
2022-12-07T22:01:20.322Z,66.94
2022-12-07T22:05:28.793Z,67.46
2022-12-07T22:09:33.551Z,67.71
2022-12-07T22:13:52.685Z,67.13
2022-12-07T22:17:56.853Z,66.61
2022-12-07T22:22:02.262Z,67.42
2022-12-07T22:26:07.810Z,67.50
2022-12-07T22:30:13.288Z,67.33
2022-12-07T22:34:18.445Z,66.59
2022-12-07T22:38:29.507Z,67.10
2022-12-07T22:42:33.425Z,66.59
2022-12-07T22:46:37.661Z,66.84
2022-12-07T22:50:41.282Z,66.88
2022-12-07T22:54:46.235Z,66.99
2022-12-07T22:58:49.558Z,67.09
2022-12-07T23:02:53.198Z,66.72
2022-12-07T23:06:59.963Z,66.63
2022-12-07T23:11:05.678Z,66.61
2022-12-07T23:15:09.693Z,66.66
2022-12-07T23:19:13.810Z,66.82
2022-12-07T23:23:17.488Z,66.94
2022-12-07T23:27:22.780Z,67.14
2022-12-07T23:31:26.852Z,67.12
2022-12-07T23:35:30.567Z,67.27
2022-12-07T23:39:34.271Z,67.57
2022-12-07T23:43:40.356Z,67.84
2022-12-07T23:47:43.389Z,67.52
2022-12-07T23:51:47.206Z,67.04
2022-12-07T23:55:50.860Z,66.79
2022-12-07T23:59:55.650Z,67.49
